createdAt,value
2018-08-25T00:01:17.716Z,96.84
2018-08-25T00:03:47.711Z,96.94
2018-08-25T00:06:16.503Z,96.64
2018-08-25T00:08:46.977Z,97.06
2018-08-25T00:11:15.612Z,97.19
2018-08-25T00:13:44.570Z,97.55
2018-08-25T00:16:13.743Z,97.35
2018-08-25T00:18:42.647Z,97.36
2018-08-25T00:21:11.851Z,97.54
2018-08-25T00:23:41.145Z,97.45
2018-08-25T00:26:10.378Z,97.93
2018-08-25T00:28:40.015Z,98.16
2018-08-25T00:31:13.973Z,98.08
2018-08-25T00:33:42.817Z,97.94
2018-08-25T00:36:11.639Z,97.99
2018-08-25T00:38:40.449Z,97.94
2018-08-25T00:41:09.698Z,98.56
2018-08-25T00:43:38.402Z,99.03
2018-08-25T00:46:08.071Z,99.44
2018-08-25T00:48:37.885Z,99.60
2018-08-25T00:51:06.862Z,99.11
2018-08-25T00:53:36.228Z,99.25
2018-08-25T00:56:04.952Z,99.14
2018-08-25T00:58:34.450Z,99.17
2018-08-25T01:01:03.849Z,99.41
2018-08-25T01:03:34.048Z,99.53
2018-08-25T01:06:03.188Z,99.79
2018-08-25T01:08:32.379Z,99.60
2018-08-25T01:11:01.991Z,99.81
2018-08-25T01:13:30.837Z,100.00
2018-08-25T01:15:59.614Z,100.00
2018-08-25T01:18:28.294Z,100.00
2018-08-25T01:20:57.654Z,100.00
2018-08-25T01:23:26.358Z,100.00
2018-08-25T01:25:54.964Z,100.00
2018-08-25T01:28:23.670Z,100.00
2018-08-25T01:30:52.470Z,100.00
2018-08-25T01:33:21.496Z,100.00
2018-08-25T01:35:50.098Z,100.00
2018-08-25T01:38:19.564Z,100.00
2018-08-25T01:40:48.323Z,99.83
2018-08-25T01:43:17.007Z,99.89
2018-08-25T01:45:45.792Z,99.91
2018-08-25T01:48:14.795Z,99.87
2018-08-25T01:50:43.561Z,99.80
2018-08-25T01:53:12.473Z,100.00
2018-08-25T01:55:41.374Z,100.00
2018-08-25T01:58:10.216Z,100.00
2018-08-25T02:00:39.207Z,100.00
2018-08-25T02:03:08.162Z,100.00
2018-08-25T02:05:36.944Z,100.00
2018-08-25T02:08:06.108Z,100.00
2018-08-25T02:10:35.115Z,100.00
2018-08-25T02:13:04.304Z,100.00
2018-08-25T02:15:33.200Z,100.00
2018-08-25T02:18:01.727Z,100.00
2018-08-25T02:20:31.204Z,100.00
2018-08-25T02:23:00.374Z,100.00
2018-08-25T02:25:29.108Z,100.00
2018-08-25T02:27:57.820Z,100.00
2018-08-25T02:30:27.044Z,100.00
2018-08-25T02:32:55.963Z,100.00
2018-08-25T02:35:24.703Z,100.00
2018-08-25T02:37:53.746Z,100.00
2018-08-25T02:40:22.765Z,100.00
2018-08-25T02:42:51.379Z,100.00
2018-08-25T02:45:23.301Z,100.00
2018-08-25T02:47:52.871Z,100.00
2018-08-25T02:50:22.264Z,100.00
2018-08-25T02:52:52.188Z,100.00
2018-08-25T02:55:21.181Z,100.00
2018-08-25T02:57:50.500Z,100.00
2018-08-25T03:00:19.317Z,100.00
2018-08-25T03:02:48.118Z,100.00
2018-08-25T03:05:16.834Z,100.00
2018-08-25T03:07:45.588Z,100.00
2018-08-25T03:10:14.705Z,100.00
2018-08-25T03:12:43.276Z,100.00
2018-08-25T03:15:12.168Z,100.00
2018-08-25T03:17:40.845Z,100.00
2018-08-25T03:20:09.581Z,100.00
2018-08-25T03:22:38.606Z,100.00
2018-08-25T03:25:07.619Z,100.00
2018-08-25T03:27:36.284Z,100.00
2018-08-25T03:30:05.336Z,100.00
2018-08-25T03:32:34.308Z,100.00
2018-08-25T03:35:03.819Z,100.00
2018-08-25T03:37:32.621Z,100.00
2018-08-25T03:40:01.246Z,100.00
2018-08-25T03:42:29.890Z,100.00
2018-08-25T03:44:58.713Z,100.00
2018-08-25T03:47:28.752Z,100.00
2018-08-25T03:49:58.119Z,100.00
2018-08-25T03:52:27.461Z,100.00
2018-08-25T03:54:55.992Z,100.00
2018-08-25T03:57:24.744Z,100.00
2018-08-25T03:59:53.463Z,100.00
2018-08-25T04:02:22.317Z,100.00
2018-08-25T04:04:52.169Z,100.00
2018-08-25T04:07:20.873Z,100.00
2018-08-25T04:09:49.660Z,100.00
2018-08-25T04:12:18.949Z,100.00
2018-08-25T04:14:48.052Z,100.00
2018-08-25T04:17:16.774Z,100.00
2018-08-25T04:19:45.980Z,100.00
2018-08-25T04:22:15.470Z,100.00
2018-08-25T04:24:44.370Z,100.00
2018-08-25T04:27:12.989Z,100.00
2018-08-25T04:29:41.599Z,100.00
2018-08-25T04:32:11.199Z,100.00
2018-08-25T04:34:39.953Z,100.00
2018-08-25T04:37:09.445Z,100.00
2018-08-25T04:39:38.335Z,100.00
2018-08-25T04:42:07.050Z,100.00
2018-08-25T04:44:36.564Z,100.00
2018-08-25T04:47:05.305Z,100.00
2018-08-25T04:49:34.069Z,100.00
2018-08-25T04:52:02.941Z,100.00
2018-08-25T04:54:31.675Z,100.00
2018-08-25T04:57:00.435Z,100.00
2018-08-25T05:00:53.581Z,100.00
2018-08-25T05:03:22.301Z,100.00
2018-08-25T05:05:52.544Z,100.00
2018-08-25T05:08:21.248Z,100.00
2018-08-25T05:10:50.419Z,100.00
2018-08-25T05:13:19.477Z,100.00
2018-08-25T05:15:48.144Z,100.00
2018-08-25T05:18:17.185Z,100.00
2018-08-25T05:20:46.201Z,100.00
2018-08-25T05:23:15.603Z,100.00
2018-08-25T05:25:44.864Z,100.00
2018-08-25T05:28:13.502Z,100.00
2018-08-25T05:30:42.204Z,100.00
2018-08-25T05:33:11.719Z,100.00
2018-08-25T05:35:41.981Z,100.00
2018-08-25T05:38:10.881Z,100.00
2018-08-25T05:40:40.100Z,100.00
2018-08-25T05:43:08.701Z,100.00
2018-08-25T05:45:37.481Z,100.00
2018-08-25T05:48:06.400Z,100.00
2018-08-25T05:50:35.944Z,100.00
2018-08-25T05:53:04.781Z,100.00
2018-08-25T05:55:33.344Z,99.96
2018-08-25T05:58:01.991Z,99.67
2018-08-25T06:00:30.871Z,99.75
2018-08-25T06:02:59.599Z,99.50
2018-08-25T06:05:28.376Z,99.61
2018-08-25T06:07:57.246Z,99.42
2018-08-25T06:10:25.875Z,99.22
2018-08-25T06:12:54.943Z,99.17
2018-08-25T06:15:25.244Z,99.17
2018-08-25T06:17:54.033Z,98.35
2018-08-25T06:20:22.802Z,97.38
2018-08-25T06:22:52.756Z,97.24
2018-08-25T06:25:22.074Z,96.15
2018-08-25T06:27:50.750Z,95.80
2018-08-25T06:30:20.178Z,94.60
2018-08-25T06:32:48.825Z,95.11
2018-08-25T06:35:17.699Z,95.63
2018-08-25T06:37:47.107Z,95.02
2018-08-25T06:40:16.297Z,94.82
2018-08-25T06:42:45.027Z,94.57
2018-08-25T06:45:13.942Z,93.95
2018-08-25T06:47:42.795Z,93.12
2018-08-25T06:50:12.565Z,93.04
2018-08-25T06:52:41.825Z,92.40
2018-08-25T06:55:10.696Z,92.06
2018-08-25T06:57:39.401Z,88.85
2018-08-25T07:00:08.656Z,89.09
2018-08-25T07:02:37.507Z,86.70
2018-08-25T07:05:07.100Z,84.95
2018-08-25T07:07:36.344Z,83.00
2018-08-25T07:10:05.132Z,84.40
2018-08-25T07:12:35.385Z,83.10
2018-08-25T07:15:05.576Z,81.67
2018-08-25T07:17:34.438Z,80.61
2018-08-25T07:20:03.202Z,80.45
2018-08-25T07:22:32.357Z,79.57
2018-08-25T07:25:01.280Z,80.09
2018-08-25T07:27:29.837Z,79.27
2018-08-25T07:29:58.639Z,78.25
2018-08-25T07:32:28.173Z,79.04
2018-08-25T07:34:57.078Z,77.42
2018-08-25T07:41:39.345Z,80.24
2018-08-25T07:44:08.305Z,81.11
2018-08-25T07:46:38.933Z,77.18
2018-08-25T07:49:07.812Z,78.10
2018-08-25T07:51:36.739Z,79.79
2018-08-25T07:54:06.245Z,80.50
2018-08-25T07:56:35.219Z,78.42
2018-08-25T07:59:03.928Z,78.03
2018-08-25T08:01:33.621Z,77.19
2018-08-25T08:04:03.836Z,77.26
2018-08-25T08:06:33.116Z,78.43
2018-08-25T08:09:02.065Z,78.97
2018-08-25T08:11:32.033Z,78.10
2018-08-25T08:14:00.712Z,78.02
2018-08-25T08:16:29.503Z,78.03
2018-08-25T08:18:58.661Z,76.53
2018-08-25T08:21:27.721Z,74.33
2018-08-25T08:23:57.180Z,74.54
2018-08-25T08:26:26.215Z,73.70
2018-08-25T08:28:55.328Z,71.94
2018-08-25T08:31:24.922Z,71.09
2018-08-25T08:33:53.901Z,72.28
2018-08-25T08:36:22.729Z,72.01
2018-08-25T08:38:51.427Z,70.40
2018-08-25T08:41:20.133Z,71.23
2018-08-25T08:43:48.755Z,69.98
2018-08-25T08:46:23.075Z,69.64
2018-08-25T08:48:51.760Z,69.45
2018-08-25T08:51:21.040Z,68.89
2018-08-25T08:53:50.590Z,68.10
2018-08-25T08:56:19.987Z,67.83
2018-08-25T08:58:48.672Z,68.72
2018-08-25T09:01:17.587Z,67.27
2018-08-25T09:03:46.587Z,67.01
2018-08-25T09:06:15.740Z,67.14
2018-08-25T09:08:45.089Z,65.84
2018-08-25T09:11:14.240Z,68.21
2018-08-25T09:13:44.165Z,68.51
2018-08-25T09:16:13.656Z,64.89
2018-08-25T09:18:42.439Z,66.66
2018-08-25T09:21:11.256Z,66.33
2018-08-25T09:23:40.015Z,65.58
2018-08-25T09:26:08.767Z,64.32
2018-08-25T09:28:38.292Z,64.19
2018-08-25T09:31:07.987Z,63.99
2018-08-25T09:33:37.228Z,65.64
2018-08-25T09:36:07.942Z,65.86
2018-08-25T09:42:16.736Z,66.17
2018-08-25T09:44:45.497Z,65.08
2018-08-25T09:47:15.633Z,66.14
2018-08-25T09:49:44.391Z,66.07
2018-08-25T09:52:13.188Z,68.30
2018-08-25T09:54:42.157Z,68.33
2018-08-25T09:57:11.771Z,70.31
2018-08-25T09:59:40.643Z,69.53
2018-08-25T10:02:09.368Z,70.49
2018-08-25T10:04:38.083Z,71.25
2018-08-25T10:07:07.271Z,71.58
2018-08-25T10:09:36.423Z,73.69
2018-08-25T10:12:05.695Z,73.65
2018-08-25T10:14:34.912Z,73.91
2018-08-25T10:17:03.783Z,72.11
2018-08-25T10:19:32.513Z,73.94
2018-08-25T10:22:03.013Z,73.19
2018-08-25T10:24:31.728Z,74.18
2018-08-25T10:27:00.767Z,75.06
2018-08-25T10:29:30.322Z,75.80
2018-08-25T10:31:59.197Z,76.89
2018-08-25T10:34:28.067Z,75.89
2018-08-25T10:36:56.971Z,75.60
2018-08-25T10:39:26.570Z,76.17
2018-08-25T10:41:55.515Z,75.85
2018-08-25T10:44:24.368Z,77.77
2018-08-25T10:46:53.531Z,77.96
2018-08-25T10:49:22.238Z,77.77
2018-08-25T10:51:51.354Z,77.72
2018-08-25T10:54:20.485Z,78.35
2018-08-25T10:56:49.860Z,78.23
2018-08-25T10:59:18.902Z,78.05
2018-08-25T11:01:48.612Z,77.70
2018-08-25T11:04:17.456Z,77.54
2018-08-25T11:06:47.247Z,76.65
2018-08-25T11:09:15.895Z,75.81
2018-08-25T11:11:45.131Z,77.40
2018-08-25T11:14:14.987Z,77.88
2018-08-25T11:16:44.467Z,77.96
2018-08-25T11:19:14.032Z,78.29
2018-08-25T11:21:43.021Z,78.96
2018-08-25T11:24:12.821Z,77.92
2018-08-25T11:26:42.373Z,77.98
2018-08-25T11:29:11.759Z,79.29
2018-08-25T11:31:40.562Z,78.29
2018-08-25T11:34:09.297Z,78.03
2018-08-25T11:36:38.389Z,78.47
2018-08-25T11:39:10.143Z,77.10
2018-08-25T11:41:39.159Z,77.93
2018-08-25T11:44:08.022Z,78.03
2018-08-25T11:46:36.838Z,76.37
2018-08-25T11:49:06.643Z,77.12
2018-08-25T11:51:35.286Z,77.37
2018-08-25T11:54:03.998Z,78.07
2018-08-25T11:56:34.015Z,78.00
2018-08-25T11:59:02.866Z,77.14
2018-08-25T12:01:33.094Z,77.45
2018-08-25T12:04:01.876Z,77.93
2018-08-25T12:06:30.919Z,76.64
2018-08-25T12:09:00.072Z,76.41
2018-08-25T12:11:28.761Z,77.19
2018-08-25T12:13:57.547Z,77.13
2018-08-25T12:16:27.021Z,76.59
2018-08-25T12:18:56.418Z,75.79
2018-08-25T12:21:25.364Z,75.99
2018-08-25T12:23:54.590Z,75.88
2018-08-25T12:26:23.723Z,75.69
2018-08-25T12:28:52.744Z,75.75
2018-08-25T12:31:22.207Z,75.39
2018-08-25T12:33:52.354Z,74.08
2018-08-25T12:36:21.688Z,74.54
2018-08-25T12:38:51.188Z,75.78
2018-08-25T12:41:21.752Z,75.99
2018-08-25T12:43:50.438Z,77.13
2018-08-25T12:46:19.377Z,76.41
2018-08-25T12:48:48.908Z,76.56
2018-08-25T12:51:17.523Z,77.24
2018-08-25T12:53:47.073Z,78.09
2018-08-25T12:56:16.981Z,78.44
2018-08-25T12:58:47.124Z,77.52
2018-08-25T13:01:15.892Z,75.84
2018-08-25T13:03:44.642Z,75.88
2018-08-25T13:06:14.122Z,76.18
2018-08-25T13:08:43.346Z,74.28
2018-08-25T13:11:12.042Z,73.87
2018-08-25T13:13:41.090Z,72.70
2018-08-25T13:16:11.280Z,72.29
2018-08-25T13:18:40.019Z,72.45
2018-08-25T13:21:08.667Z,71.14
2018-08-25T13:23:37.789Z,70.52
2018-08-25T13:26:06.839Z,70.72
2018-08-25T13:28:35.596Z,70.57
2018-08-25T13:31:04.566Z,69.48
2018-08-25T13:33:34.894Z,68.39
2018-08-25T13:36:04.818Z,69.36
2018-08-25T13:38:33.968Z,67.94
2018-08-25T13:41:03.362Z,65.10
2018-08-25T13:43:32.554Z,61.42
2018-08-25T13:46:01.658Z,60.15
2018-08-25T13:48:31.447Z,59.10
2018-08-25T13:51:00.360Z,61.42
2018-08-25T13:53:28.970Z,61.26
2018-08-25T13:55:57.852Z,62.58
2018-08-25T13:58:26.947Z,63.33
2018-08-25T14:00:56.464Z,62.14
2018-08-25T14:03:26.238Z,65.59
2018-08-25T14:05:56.095Z,65.08
2018-08-25T14:08:25.829Z,66.32
2018-08-25T14:10:55.137Z,65.80
2018-08-25T14:13:24.155Z,67.98
2018-08-25T14:15:54.152Z,67.55
2018-08-25T14:18:26.198Z,67.69
2018-08-25T14:20:55.807Z,68.18
2018-08-25T14:23:25.316Z,67.75
2018-08-25T14:25:54.138Z,68.27
2018-08-25T14:28:23.336Z,68.58
2018-08-25T14:30:53.012Z,67.73
2018-08-25T14:33:21.973Z,67.71
2018-08-25T14:35:50.778Z,69.13
2018-08-25T14:38:19.943Z,68.33
2018-08-25T14:40:49.640Z,70.32
2018-08-25T14:43:18.860Z,71.70
2018-08-25T14:45:47.540Z,72.34
2018-08-25T14:48:16.360Z,72.24
2018-08-25T14:50:46.162Z,73.44
2018-08-25T14:53:15.018Z,72.84
2018-08-25T14:55:44.191Z,72.28
2018-08-25T14:58:15.101Z,72.39
2018-08-25T15:00:44.334Z,71.83
2018-08-25T15:03:14.158Z,71.04
2018-08-25T15:05:42.917Z,70.04
2018-08-25T15:08:12.602Z,69.11
2018-08-25T15:10:42.453Z,69.69
2018-08-25T15:13:12.457Z,68.41
2018-08-25T15:15:41.229Z,67.99
2018-08-25T15:18:09.985Z,67.46
2018-08-25T15:20:39.006Z,67.68
2018-08-25T15:23:08.222Z,68.06
2018-08-25T15:25:37.685Z,68.65
2018-08-25T15:28:06.976Z,67.51
2018-08-25T15:30:35.833Z,67.27
2018-08-25T15:33:04.490Z,66.72
2018-08-25T15:35:34.008Z,67.17
2018-08-25T15:38:02.803Z,67.85
2018-08-25T15:40:31.683Z,67.43
2018-08-25T15:43:00.554Z,69.08
2018-08-25T15:45:29.379Z,69.51
2018-08-25T15:47:58.621Z,69.44
2018-08-25T15:50:27.343Z,69.61
2018-08-25T15:52:56.684Z,70.20
2018-08-25T15:55:25.368Z,69.96
2018-08-25T15:57:56.519Z,70.17
2018-08-25T16:00:25.250Z,70.74
2018-08-25T16:02:53.888Z,70.71
2018-08-25T16:05:22.903Z,69.59
2018-08-25T16:07:53.418Z,69.04
2018-08-25T16:10:22.408Z,69.04
2018-08-25T16:12:52.535Z,70.17
2018-08-25T16:15:21.569Z,70.54
2018-08-25T16:17:51.137Z,71.34
2018-08-25T16:20:20.578Z,72.27
2018-08-25T16:22:49.941Z,73.04
2018-08-25T16:25:19.382Z,73.02
2018-08-25T16:27:49.812Z,72.28
2018-08-25T16:30:19.115Z,72.37
2018-08-25T16:32:48.464Z,68.92
2018-08-25T16:35:17.289Z,67.91
2018-08-25T16:37:46.082Z,66.01
2018-08-25T16:40:16.014Z,67.02
2018-08-25T16:42:45.240Z,65.88
2018-08-25T16:45:14.607Z,65.84
2018-08-25T16:47:43.820Z,65.99
2018-08-25T16:50:12.738Z,64.55
2018-08-25T16:52:42.119Z,65.45
2018-08-25T16:55:11.514Z,66.23
2018-08-25T16:57:40.214Z,69.08
2018-08-25T17:00:11.167Z,70.27
2018-08-25T17:02:40.050Z,71.74
2018-08-25T17:05:09.100Z,71.65
2018-08-25T17:07:39.620Z,72.64
2018-08-25T17:10:08.624Z,72.22
2018-08-25T17:12:37.315Z,73.39
2018-08-25T17:21:41.212Z,74.10
2018-08-25T17:24:10.429Z,74.61
2018-08-25T17:26:39.569Z,74.43
2018-08-25T17:29:08.229Z,74.74
2018-08-25T17:31:37.023Z,74.82
2018-08-25T17:34:05.642Z,76.20
2018-08-25T17:36:34.736Z,75.41
2018-08-25T17:39:03.971Z,76.34
2018-08-25T17:41:33.599Z,76.00
2018-08-25T17:44:03.140Z,76.31
2018-08-25T17:46:32.251Z,76.16
2018-08-25T17:49:01.965Z,76.00
2018-08-25T17:51:31.982Z,76.40
2018-08-25T17:54:01.261Z,76.32
2018-08-25T17:56:30.279Z,76.68
2018-08-25T17:58:59.362Z,76.88
2018-08-25T18:01:29.304Z,76.96
2018-08-25T18:03:58.805Z,77.14
2018-08-25T18:06:28.061Z,77.39
2018-08-25T18:08:56.950Z,77.82
2018-08-25T18:11:26.623Z,78.15
2018-08-25T18:13:55.754Z,79.15
2018-08-25T18:16:25.746Z,79.32
2018-08-25T18:18:54.575Z,79.31
2018-08-25T18:21:23.719Z,80.39
2018-08-25T18:23:52.808Z,81.44
2018-08-25T18:26:22.094Z,82.06
2018-08-25T18:28:51.444Z,82.78
2018-08-25T18:31:20.485Z,83.44
2018-08-25T18:33:50.025Z,83.43
2018-08-25T18:36:19.113Z,83.27
2018-08-25T18:38:48.028Z,84.01
2018-08-25T18:41:16.821Z,83.83
2018-08-25T18:43:47.268Z,83.50
2018-08-25T18:46:16.889Z,84.45
2018-08-25T18:48:46.095Z,84.06
2018-08-25T18:51:15.029Z,84.85
2018-08-25T18:53:44.243Z,84.23
2018-08-25T18:56:13.808Z,83.88
2018-08-25T18:58:42.894Z,84.15
2018-08-25T19:01:13.845Z,83.58
2018-08-25T19:03:43.225Z,83.18
2018-08-25T19:06:12.236Z,82.87
2018-08-25T19:08:41.526Z,82.99
2018-08-25T19:11:10.716Z,83.91
2018-08-25T19:13:40.411Z,84.36
2018-08-25T19:16:09.394Z,84.85
2018-08-25T19:18:38.710Z,85.51
2018-08-25T19:21:08.360Z,85.62
2018-08-25T19:23:37.523Z,85.58
2018-08-25T19:26:07.379Z,86.39
2018-08-25T19:28:37.756Z,86.42
2018-08-25T19:31:06.896Z,86.15
2018-08-25T19:33:36.202Z,86.30
2018-08-25T19:36:05.875Z,86.30
2018-08-25T19:38:35.720Z,86.41
2018-08-25T19:41:04.934Z,86.97
2018-08-25T19:43:34.916Z,86.71
2018-08-25T19:46:04.711Z,86.15
2018-08-25T19:48:34.786Z,86.78
2018-08-25T19:51:04.506Z,86.79
2018-08-25T19:53:33.759Z,86.78
2018-08-25T19:56:04.969Z,86.62
2018-08-25T19:58:34.317Z,87.00
2018-08-25T20:01:03.570Z,87.09
2018-08-25T20:03:32.479Z,87.38
2018-08-25T20:06:01.991Z,87.26
2018-08-25T20:08:31.263Z,87.96
2018-08-25T20:11:00.061Z,88.04
2018-08-25T20:13:29.125Z,88.19
2018-08-25T20:15:58.519Z,88.96
2018-08-25T20:18:27.784Z,89.12
2018-08-25T20:20:57.828Z,89.02
2018-08-25T20:23:27.025Z,89.75
2018-08-25T20:25:56.267Z,89.92
2018-08-25T20:28:26.601Z,90.45
2018-08-25T20:30:55.899Z,89.59
2018-08-25T20:33:27.140Z,90.13
2018-08-25T20:35:56.544Z,90.42
2018-08-25T20:38:25.331Z,91.00
2018-08-25T20:40:55.860Z,91.37
2018-08-25T20:43:25.643Z,91.54
2018-08-25T20:45:54.618Z,91.99
2018-08-25T20:48:24.796Z,92.71
2018-08-25T20:50:54.735Z,92.62
2018-08-25T20:53:23.605Z,92.63
2018-08-25T20:55:53.761Z,92.43
2018-08-25T20:58:24.175Z,91.86
2018-08-25T21:00:53.566Z,91.59
2018-08-25T21:03:22.771Z,91.78
2018-08-25T21:05:52.655Z,92.03
2018-08-25T21:08:22.061Z,92.03
2018-08-25T21:10:51.367Z,92.07
2018-08-25T21:13:20.557Z,92.38
2018-08-25T21:15:49.650Z,93.18
2018-08-25T21:18:20.740Z,93.46
2018-08-25T21:20:50.061Z,93.52
2018-08-25T21:23:19.359Z,93.72
2018-08-25T21:25:49.619Z,93.88
2018-08-25T21:28:20.316Z,94.22
2018-08-25T21:30:49.776Z,94.43
2018-08-25T21:33:19.025Z,94.26
2018-08-25T21:35:49.089Z,94.54
2018-08-25T21:38:18.329Z,94.71
2018-08-25T21:40:47.869Z,95.04
2018-08-25T21:43:17.019Z,95.38
2018-08-25T21:45:48.064Z,95.58
2018-08-25T21:48:17.346Z,96.21
2018-08-25T21:50:47.222Z,95.90
2018-08-25T21:53:16.717Z,96.18
2018-08-25T21:55:47.316Z,96.15
2018-08-25T21:58:17.143Z,96.83
2018-08-25T22:00:51.174Z,96.83
2018-08-25T22:03:19.941Z,97.06
2018-08-25T22:05:49.710Z,97.24
2018-08-25T22:08:18.796Z,97.26
2018-08-25T22:10:47.659Z,97.54
2018-08-25T22:13:18.057Z,98.48
2018-08-25T22:15:48.533Z,98.63
2018-08-25T22:18:17.596Z,98.72
2018-08-25T22:20:47.980Z,98.74
2018-08-25T22:23:17.352Z,98.31
2018-08-25T22:25:46.121Z,97.93
2018-08-25T22:28:15.460Z,97.74
2018-08-25T22:30:44.829Z,97.77
2018-08-25T22:33:13.595Z,97.77
2018-08-25T22:35:42.117Z,98.08
2018-08-25T22:38:11.049Z,98.12
2018-08-25T22:40:40.505Z,98.07
2018-08-25T22:43:09.280Z,98.11
2018-08-25T22:45:38.055Z,97.58
2018-08-25T22:48:06.734Z,98.22
2018-08-25T22:50:36.589Z,98.24
2018-08-25T22:53:05.416Z,98.04
2018-08-25T22:55:34.089Z,98.04
2018-08-25T22:58:02.819Z,98.56
2018-08-25T23:00:32.362Z,98.69
2018-08-25T23:03:01.231Z,98.60
2018-08-25T23:05:30.815Z,99.11
2018-08-25T23:07:59.706Z,99.65
2018-08-25T23:10:30.578Z,99.74
2018-08-25T23:12:59.476Z,99.95
2018-08-25T23:15:28.426Z,99.89
2018-08-25T23:17:57.111Z,100.00
2018-08-25T23:20:25.866Z,100.00
2018-08-25T23:22:54.531Z,99.88
2018-08-25T23:25:23.275Z,99.62
2018-08-25T23:27:51.953Z,99.38
2018-08-25T23:30:21.870Z,99.44
2018-08-25T23:32:50.500Z,99.78
2018-08-25T23:35:19.455Z,99.42
2018-08-25T23:37:49.174Z,99.14
2018-08-25T23:40:18.789Z,99.13
2018-08-25T23:42:47.400Z,99.29
2018-08-25T23:45:16.398Z,99.51
2018-08-25T23:47:44.995Z,99.97
2018-08-25T23:50:13.664Z,99.82
2018-08-25T23:52:42.227Z,99.75
2018-08-25T23:55:10.983Z,100.00
2018-08-25T23:57:40.610Z,100.00
